createdAt,value
2023-05-10T00:02:15.660Z,41.22
2023-05-10T00:07:20.776Z,41.42
2023-05-10T00:12:23.768Z,41.41
2023-05-10T00:17:28.060Z,41.31
2023-05-10T00:22:32.299Z,41.41
2023-05-10T00:27:35.212Z,41.52
2023-05-10T00:32:38.405Z,41.31
2023-05-10T00:37:42.685Z,41.39
2023-05-10T00:42:45.741Z,41.41
2023-05-10T00:47:48.691Z,41.33
2023-05-10T00:52:54.983Z,41.35
2023-05-10T00:57:57.869Z,41.36
2023-05-10T01:03:00.939Z,41.22
2023-05-10T01:08:05.662Z,41.42
2023-05-10T01:13:08.603Z,41.32
2023-05-10T01:18:11.610Z,40.82
2023-05-10T01:23:47.358Z,41.15
2023-05-10T01:29:14.604Z,41.21
2023-05-10T01:34:21.458Z,40.96
2023-05-10T01:39:28.075Z,40.99
2023-05-10T01:44:36.028Z,40.62
2023-05-10T01:49:44.494Z,40.68
2023-05-10T01:54:52.437Z,40.71
2023-05-10T01:59:57.697Z,40.81
2023-05-10T02:05:01.940Z,40.82
2023-05-10T02:10:06.955Z,40.68
2023-05-10T02:15:11.571Z,40.19
2023-05-10T02:20:16.784Z,40.39
2023-05-10T02:25:21.158Z,39.93
2023-05-10T02:30:25.070Z,40.21
2023-05-10T02:35:29.556Z,39.80
2023-05-10T02:40:32.615Z,40.02
2023-05-10T02:45:36.841Z,39.73
2023-05-10T02:50:43.984Z,39.60
2023-05-10T02:55:48.639Z,39.81
2023-05-10T03:00:51.595Z,39.67
2023-05-10T03:05:56.874Z,39.53
2023-05-10T03:11:11.497Z,39.50
2023-05-10T03:16:18.073Z,39.35
2023-05-10T03:21:27.114Z,39.31
2023-05-10T03:26:31.765Z,38.82
2023-05-10T03:31:35.073Z,39.09
2023-05-10T03:36:39.833Z,38.62
2023-05-10T03:41:46.144Z,38.45
2023-05-10T03:46:49.079Z,38.61
2023-05-10T03:51:53.654Z,38.45
2023-05-10T03:56:56.451Z,38.54
2023-05-10T04:01:59.665Z,38.30
2023-05-10T04:07:03.853Z,38.13
2023-05-10T04:12:09.453Z,38.37
2023-05-10T04:17:13.738Z,38.46
2023-05-10T04:22:18.615Z,38.58
2023-05-10T04:27:21.918Z,38.29
2023-05-10T04:32:24.923Z,38.34
2023-05-10T04:37:29.112Z,38.33
2023-05-10T04:42:31.977Z,37.71
2023-05-10T04:47:35.724Z,37.97
2023-05-10T04:52:39.883Z,37.69
2023-05-10T04:57:42.719Z,37.40
2023-05-10T05:02:46.552Z,37.71
2023-05-10T05:07:52.702Z,37.36
2023-05-10T05:12:55.778Z,37.28
2023-05-10T05:17:58.713Z,37.35
2023-05-10T05:23:03.501Z,37.49
2023-05-10T05:28:07.563Z,37.22
2023-05-10T05:33:11.916Z,37.66
2023-05-10T05:38:16.788Z,37.23
2023-05-10T05:43:19.695Z,37.21
2023-05-10T05:48:22.569Z,36.85
2023-05-10T05:53:26.748Z,36.94
2023-05-10T05:58:29.641Z,36.83
2023-05-10T06:03:32.539Z,36.56
2023-05-10T06:08:36.804Z,36.49
2023-05-10T06:13:40.530Z,35.96
2023-05-10T06:18:43.469Z,36.14
2023-05-10T06:23:47.667Z,35.66
2023-05-10T06:28:50.617Z,35.79
2023-05-10T06:33:55.338Z,35.47
2023-05-10T06:39:00.858Z,35.58
2023-05-10T06:44:04.614Z,35.74
2023-05-10T06:49:07.616Z,35.19
2023-05-10T06:54:11.751Z,35.61
2023-05-10T06:59:16.929Z,35.36
2023-05-10T07:04:20.285Z,35.31
2023-05-10T07:09:25.393Z,35.26
2023-05-10T07:14:28.238Z,35.01
2023-05-10T07:19:33.478Z,35.16
2023-05-10T07:24:37.975Z,35.05
2023-05-10T07:29:41.038Z,34.89
2023-05-10T07:34:43.950Z,35.16
2023-05-10T07:39:48.239Z,35.26
2023-05-10T07:44:51.126Z,35.04
2023-05-10T07:49:53.934Z,35.12
2023-05-10T07:54:58.274Z,35.14
2023-05-10T08:00:01.345Z,35.08
2023-05-10T08:05:05.214Z,35.10
2023-05-10T08:10:11.998Z,35.11
2023-05-10T08:15:14.961Z,35.19
2023-05-10T08:20:19.982Z,35.16
2023-05-10T08:25:24.262Z,35.10
2023-05-10T08:30:27.216Z,34.82
2023-05-10T08:35:30.993Z,34.88
2023-05-10T08:40:36.942Z,34.64
2023-05-10T08:45:41.775Z,34.51
2023-05-10T08:50:44.930Z,34.49
2023-05-10T08:55:49.623Z,34.51
2023-05-10T09:00:53.439Z,34.66
2023-05-10T09:05:57.072Z,34.39
2023-05-10T09:11:02.436Z,33.98
2023-05-10T09:16:13.937Z,34.30
2023-05-10T09:21:24.510Z,33.73
2023-05-10T09:26:29.226Z,33.80
2023-05-10T09:31:48.989Z,33.74
2023-05-10T09:36:57.342Z,33.88
2023-05-10T09:42:04.765Z,33.61
2023-05-10T09:47:07.707Z,33.19
2023-05-10T09:52:10.810Z,33.22
2023-05-10T09:57:21.971Z,32.79
2023-05-10T10:02:31.063Z,33.08
2023-05-10T10:07:34.495Z,32.59
2023-05-10T10:12:39.168Z,32.49
2023-05-10T10:17:43.199Z,32.17
2023-05-10T10:22:46.762Z,32.07
2023-05-10T10:28:00.436Z,31.77
2023-05-10T10:33:28.506Z,31.70
2023-05-10T10:38:40.776Z,31.63
2023-05-10T10:43:46.441Z,31.37
2023-05-10T10:48:52.405Z,31.00
2023-05-10T10:53:56.081Z,30.80
2023-05-10T10:59:02.644Z,30.90
2023-05-10T11:04:21.788Z,30.86
2023-05-10T11:09:26.729Z,30.95
2023-05-10T11:14:34.041Z,30.99
2023-05-10T11:19:39.952Z,31.25
2023-05-10T11:24:59.103Z,31.31
2023-05-10T11:30:04.999Z,31.25
2023-05-10T11:35:09.563Z,30.81
2023-05-10T11:40:13.721Z,31.16
2023-05-10T11:45:18.120Z,30.89
2023-05-10T11:50:20.995Z,30.67
2023-05-10T11:55:25.136Z,30.83
2023-05-10T12:00:29.754Z,30.59
2023-05-10T12:05:34.391Z,31.02
2023-05-10T12:10:37.470Z,30.86
2023-05-10T12:15:41.995Z,31.10
2023-05-10T12:20:44.823Z,30.99
2023-05-10T12:25:47.781Z,30.86
2023-05-10T12:30:55.315Z,31.05
2023-05-10T12:36:01.416Z,30.69
2023-05-10T12:41:06.071Z,31.08
2023-05-10T12:46:11.372Z,30.33
2023-05-10T12:51:16.700Z,30.29
2023-05-10T12:56:19.842Z,30.04
2023-05-10T13:01:24.858Z,29.96
2023-05-10T13:06:27.817Z,30.55
2023-05-10T13:11:30.790Z,30.28
2023-05-10T13:16:36.207Z,30.62
2023-05-10T13:21:39.277Z,30.54
2023-05-10T13:26:42.380Z,30.42
2023-05-10T13:31:46.758Z,30.34
2023-05-10T13:36:50.168Z,30.50
2023-05-10T13:41:53.890Z,30.12
2023-05-10T13:46:58.944Z,30.49
2023-05-10T13:52:06.853Z,30.13
2023-05-10T13:57:09.888Z,30.32
2023-05-10T14:02:14.255Z,30.41
2023-05-10T14:07:17.142Z,30.43
2023-05-10T14:12:20.851Z,30.13
2023-05-10T14:17:25.385Z,29.96
2023-05-10T14:22:28.303Z,29.92
2023-05-10T14:27:31.343Z,29.32
2023-05-10T14:32:37.575Z,29.56
2023-05-10T14:37:40.736Z,29.53
2023-05-10T14:42:44.190Z,29.63
2023-05-10T14:47:49.137Z,29.13
2023-05-10T14:52:52.565Z,29.33
2023-05-10T14:57:55.451Z,29.19
2023-05-10T15:02:59.657Z,29.48
2023-05-10T15:08:03.055Z,29.71
2023-05-10T15:13:06.139Z,29.57
2023-05-10T15:18:10.565Z,29.79
2023-05-10T15:23:13.477Z,30.37
2023-05-10T15:28:16.281Z,30.33
2023-05-10T15:38:23.507Z,28.17
2023-05-10T15:43:26.455Z,28.00
2023-05-10T15:48:32.241Z,29.04
2023-05-10T15:53:36.034Z,28.94
2023-05-10T15:58:39.491Z,29.72
2023-05-10T16:03:44.843Z,29.22
2023-05-10T16:08:47.673Z,29.26
2023-05-10T16:13:50.511Z,29.83
2023-05-10T16:18:54.775Z,30.00
2023-05-10T16:23:57.745Z,29.57
2023-05-10T16:29:00.673Z,30.39
2023-05-10T16:34:04.845Z,29.97
2023-05-10T16:39:09.282Z,30.49
2023-05-10T16:44:12.123Z,30.61
2023-05-10T16:49:16.537Z,30.17
2023-05-10T16:54:20.239Z,30.72
2023-05-10T16:59:23.072Z,30.08
2023-05-10T17:04:27.328Z,27.43
2023-05-10T17:09:30.127Z,25.72
2023-05-10T17:14:32.915Z,25.82
2023-05-10T17:19:37.132Z,25.88
2023-05-10T17:24:39.983Z,26.21
2023-05-10T17:29:42.967Z,28.13
2023-05-10T17:34:47.396Z,29.07
2023-05-10T17:39:50.804Z,29.75
2023-05-10T17:44:53.651Z,30.22
2023-05-10T17:49:57.790Z,30.46
2023-05-10T17:55:01.166Z,30.50
2023-05-10T18:00:06.272Z,30.19
2023-05-10T18:05:12.074Z,30.50
2023-05-10T18:10:16.128Z,30.52
2023-05-10T18:15:19.239Z,30.56
2023-05-10T18:20:23.659Z,30.67
2023-05-10T18:25:26.600Z,30.84
2023-05-10T18:30:29.410Z,31.13
2023-05-10T18:35:35.280Z,30.64
2023-05-10T18:40:38.119Z,31.22
2023-05-10T18:45:41.649Z,30.65
2023-05-10T18:50:45.855Z,30.56
2023-05-10T18:55:56.911Z,30.88
2023-05-10T19:00:59.708Z,31.23
2023-05-10T19:06:03.937Z,30.89
2023-05-10T19:11:06.810Z,31.07
2023-05-10T19:16:14.287Z,31.25
2023-05-10T19:21:18.801Z,31.46
2023-05-10T19:26:23.292Z,31.58
2023-05-10T19:31:26.180Z,31.40
2023-05-10T19:36:31.135Z,31.65
2023-05-10T19:41:34.001Z,31.31
2023-05-10T19:46:36.897Z,31.73
2023-05-10T19:51:41.326Z,31.30
2023-05-10T19:56:44.481Z,31.52
2023-05-10T20:01:47.319Z,31.77
2023-05-10T20:06:51.529Z,31.58
2023-05-10T20:11:54.339Z,31.87
2023-05-10T20:16:57.211Z,31.51
2023-05-10T20:22:01.424Z,32.18
2023-05-10T20:27:05.206Z,32.03
2023-05-10T20:32:08.118Z,32.17
2023-05-10T20:37:13.286Z,31.73
2023-05-10T20:42:16.607Z,31.83
2023-05-10T20:47:19.549Z,31.98
2023-05-10T20:52:25.167Z,31.96
2023-05-10T20:57:27.943Z,31.93
2023-05-10T21:02:30.764Z,32.08
2023-05-10T21:07:35.025Z,32.08
2023-05-10T21:12:38.103Z,32.04
2023-05-10T21:17:40.912Z,32.00
2023-05-10T21:22:45.137Z,32.43
2023-05-10T21:27:48.279Z,32.30
2023-05-10T21:32:51.147Z,32.30
2023-05-10T21:37:55.806Z,32.53
2023-05-10T21:42:58.576Z,32.42
2023-05-10T21:48:01.711Z,32.24
2023-05-10T21:53:05.928Z,32.37
2023-05-10T21:58:08.760Z,32.40
2023-05-10T22:03:13.188Z,32.49
2023-05-10T22:08:17.460Z,32.54
2023-05-10T22:13:20.340Z,32.48
2023-05-10T22:18:23.237Z,32.73
2023-05-10T22:23:27.532Z,32.76
2023-05-10T22:28:30.687Z,32.49
2023-05-10T22:33:33.483Z,32.35
2023-05-10T22:38:37.718Z,32.46
2023-05-10T22:43:40.510Z,32.41
2023-05-10T22:48:44.132Z,32.61
2023-05-10T22:53:48.361Z,32.79
2023-05-10T22:58:52.109Z,32.83
2023-05-10T23:03:54.915Z,32.42
2023-05-10T23:08:59.071Z,32.82
2023-05-10T23:14:01.898Z,32.84
2023-05-10T23:19:04.756Z,32.79
2023-05-10T23:24:09.153Z,32.64
2023-05-10T23:29:12.257Z,32.72
2023-05-10T23:34:15.731Z,32.38
2023-05-10T23:39:19.914Z,32.44
2023-05-10T23:44:22.760Z,32.71
2023-05-10T23:49:25.559Z,32.71
2023-05-10T23:54:29.788Z,32.78
2023-05-10T23:59:32.902Z,32.75
